Time;durP1;ratioP1;P1;durP2;ratioP2;P2;SDS_P1;SDS_P2;PMS_P1;PMS_P2;Temp;Humidity;BMP_temperature;BMP_pressure;BME280_temperature;BME280_humidity;BME280_pressure;Samples;Min_cycle;Max_cycle;Signal;HPM_P1;HPM_P2
2023/09/23 04:01:41;;;;;;;5.33;1.40;;;13.70;97.30;;;;;;5504956;23;20555;-91
2023/09/23 04:04:07;;;;;;;1.10;1.00;;;13.60;97.30;;;;;;5026583;28;20507;-92
2023/09/23 04:06:34;;;;;;;2.30;1.27;;;13.60;97.30;;;;;;5020058;28;20232;-93
2023/09/23 04:08:59;;;;;;;1.13;1.03;;;13.60;97.30;;;;;;5023204;28;20420;-91
2023/09/23 04:11:26;;;;;;;1.30;1.20;;;13.60;97.30;;;;;;5027931;28;20211;-92
2023/09/23 04:13:53;;;;;;;1.00;0.90;;;13.60;97.30;;;;;;5019307;28;20239;-91
2023/09/23 04:16:19;;;;;;;1.13;1.03;;;13.50;97.30;;;;;;5014073;28;20463;-89
2023/09/23 04:18:46;;;;;;;1.33;1.20;;;13.50;97.30;;;;;;5011562;28;20428;-90
2023/09/23 04:21:12;;;;;;;1.20;1.10;;;13.50;97.30;;;;;;5012125;28;20432;-91
2023/09/23 04:23:39;;;;;;;1.67;1.57;;;13.50;97.30;;;;;;5011803;28;20486;-89
2023/09/23 04:26:05;;;;;;;1.00;0.90;;;13.50;97.30;;;;;;5008180;28;20216;-88
2023/09/23 04:28:31;;;;;;;0.90;0.80;;;13.50;97.30;;;;;;5004053;28;20471;-90
2023/09/23 04:30:57;;;;;;;1.10;1.00;;;13.40;97.30;;;;;;5009501;28;20207;-90
2023/09/23 04:33:27;;;;;;;1.10;1.00;;;13.40;97.30;;;;;;5007769;28;20428;-89
2023/09/23 04:35:58;;;;;;;1.10;1.00;;;13.40;97.30;;;;;;5008069;28;20455;-90
2023/09/23 04:38:24;;;;;;;1.23;1.20;;;13.30;97.30;;;;;;5009055;28;20455;-89
2023/09/23 04:40:51;;;;;;;1.10;1.00;;;13.30;97.30;;;;;;5004160;28;20845;-90
2023/09/23 04:43:16;;;;;;;1.83;1.73;;;13.40;97.30;;;;;;5007291;28;20423;-88
2023/09/23 04:45:42;;;;;;;1.00;0.90;;;13.30;97.30;;;;;;5002131;28;20424;-89
2023/09/23 04:48:08;;;;;;;1.00;0.90;;;13.40;97.30;;;;;;5004714;28;20178;-88
2023/09/23 04:50:35;;;;;;;1.10;1.00;;;13.40;97.30;;;;;;5008698;28;20431;-88
2023/09/23 04:53:02;;;;;;;1.20;1.10;;;13.40;97.30;;;;;;5002847;28;20176;-86
2023/09/23 04:55:28;;;;;;;1.10;1.00;;;13.40;97.30;;;;;;5010028;28;20913;-91
2023/09/23 04:57:55;;;;;;;1.00;0.90;;;13.40;97.30;;;;;;5003645;28;20471;-89
2023/09/23 05:00:21;;;;;;;1.00;0.90;;;13.40;97.30;;;;;;5011123;28;20420;-86
2023/09/23 05:02:49;;;;;;;1.23;1.20;;;13.40;97.30;;;;;;5007822;28;20464;-87
2023/09/23 05:05:16;;;;;;;1.00;0.90;;;13.40;97.30;;;;;;5009599;28;20790;-89
2023/09/23 05:07:41;;;;;;;1.10;1.00;;;13.40;97.30;;;;;;5005849;28;20427;-87
2023/09/23 05:10:07;;;;;;;1.37;1.20;;;13.40;97.30;;;;;;5011566;28;20420;-88
2023/09/23 05:12:33;;;;;;;1.00;0.90;;;13.40;97.30;;;;;;5011113;28;20207;-88
2023/09/23 05:14:59;;;;;;;0.90;0.80;;;13.40;97.30;;;;;;5012057;28;20613;-89
2023/09/23 05:17:26;;;;;;;1.03;0.97;;;13.40;97.30;;;;;;5009217;28;20468;-89
2023/09/23 05:19:53;;;;;;;0.90;0.90;;;13.40;97.30;;;;;;5009142;28;20455;-87
2023/09/23 05:22:19;;;;;;;2.20;1.60;;;13.40;97.30;;;;;;5009364;28;20962;-87
2023/09/23 05:24:50;;;;;;;1.30;1.20;;;13.30;97.30;;;;;;5006211;28;21137;-89
2023/09/23 05:27:16;;;;;;;1.07;0.97;;;13.20;97.30;;;;;;5012664;28;20424;-88
2023/09/23 05:29:43;;;;;;;1.00;0.90;;;13.20;97.30;;;;;;5013501;28;20474;-88
2023/09/23 05:32:12;;;;;;;1.00;0.90;;;13.10;97.30;;;;;;5009423;28;20260;-87
2023/09/23 05:34:41;;;;;;;1.03;1.00;;;13.10;97.30;;;;;;5009017;28;20807;-89
2023/09/23 05:37:11;;;;;;;1.40;1.30;;;13.10;97.30;;;;;;5008446;28;20452;-87
2023/09/23 05:39:37;;;;;;;1.83;1.27;;;13.00;97.30;;;;;;5009252;28;20469;-90
2023/09/23 05:42:03;;;;;;;1.33;1.23;;;13.00;97.30;;;;;;5008900;28;20860;-89
2023/09/23 05:44:28;;;;;;;1.10;1.00;;;13.00;97.30;;;;;;5008732;28;20417;-88
2023/09/23 05:46:54;;;;;;;1.10;1.00;;;13.00;97.30;;;;;;5007000;28;20185;-89
2023/09/23 05:49:19;;;;;;;1.53;1.43;;;13.00;97.30;;;;;;5005301;28;20594;-87
2023/09/23 05:51:45;;;;;;;1.50;1.40;;;13.00;97.30;;;;;;5011561;28;20213;-88
2023/09/23 05:54:11;;;;;;;1.20;1.20;;;13.10;97.30;;;;;;5006892;28;20184;-90
2023/09/23 05:56:36;;;;;;;1.40;1.30;;;13.10;97.30;;;;;;5010255;28;20464;-89
2023/09/23 05:59:02;;;;;;;1.53;1.43;;;13.10;97.30;;;;;;5005806;28;20240;-89
2023/09/23 06:01:28;;;;;;;1.97;1.13;;;13.10;97.30;;;;;;5008707;28;20255;-88
2023/09/23 06:03:56;;;;;;;10.03;1.47;;;13.10;97.30;;;;;;5003066;28;20181;-88
2023/09/23 06:06:22;;;;;;;1.03;0.93;;;13.20;97.30;;;;;;5004243;28;20474;-88
2023/09/23 06:08:48;;;;;;;1.10;1.10;;;13.20;97.30;;;;;;5005416;28;20499;-87
2023/09/23 06:11:14;;;;;;;1.00;0.90;;;13.20;97.30;;;;;;5005315;28;20464;-88
2023/09/23 06:13:40;;;;;;;1.10;1.00;;;13.20;97.30;;;;;;4999974;28;20425;-89
2023/09/23 06:16:09;;;;;;;1.00;0.90;;;13.30;97.30;;;;;;5008243;28;20505;-87
2023/09/23 06:18:34;;;;;;;1.10;1.00;;;13.30;97.30;;;;;;5001088;28;20333;-88
2023/09/23 06:21:01;;;;;;;1.20;1.10;;;13.30;97.30;;;;;;5008345;28;20530;-88
2023/09/23 06:23:28;;;;;;;1.00;0.90;;;13.40;97.30;;;;;;5000894;28;20339;-89
2023/09/23 06:26:02;;;;;;;1.00;0.90;;;13.50;97.30;;;;;;5004299;28;20432;-86
2023/09/23 06:28:29;;;;;;;1.00;0.93;;;13.50;97.30;;;;;;5002030;28;20960;-89
2023/09/23 06:30:57;;;;;;;1.23;1.13;;;13.50;97.30;;;;;;5000449;28;20452;-88
2023/09/23 06:33:23;;;;;;;1.00;0.90;;;13.50;97.30;;;;;;5009075;28;20451;-88
2023/09/23 06:35:49;;;;;;;1.10;1.00;;;13.50;97.30;;;;;;5008828;28;20906;-88
2023/09/23 06:38:15;;;;;;;1.00;0.90;;;13.60;97.30;;;;;;5005894;28;20520;-89
2023/09/23 06:40:41;;;;;;;1.20;1.10;;;13.60;97.30;;;;;;5004368;28;20451;-88
2023/09/23 06:43:07;;;;;;;1.00;0.90;;;13.70;97.30;;;;;;5004601;28;20922;-90
2023/09/23 06:45:33;;;;;;;1.00;0.90;;;13.80;97.30;;;;;;5001316;28;20181;-90
2023/09/23 06:47:58;;;;;;;1.00;0.90;;;13.80;97.30;;;;;;5002234;28;20191;-88
2023/09/23 06:50:24;;;;;;;1.20;1.20;;;13.90;97.30;;;;;;5001972;28;20219;-89
2023/09/23 06:52:49;;;;;;;1.00;0.90;;;13.90;97.30;;;;;;5009582;28;20185;-89
2023/09/23 06:55:15;;;;;;;0.90;0.80;;;14.00;97.30;;;;;;5010203;28;20284;-88
2023/09/23 06:57:41;;;;;;;1.00;0.90;;;14.00;97.30;;;;;;5003575;28;20296;-89
2023/09/23 07:00:07;;;;;;;1.07;0.90;;;14.10;97.30;;;;;;5000211;28;20181;-89
2023/09/23 07:02:34;;;;;;;1.80;1.37;;;14.10;97.30;;;;;;4998300;28;20237;-88
2023/09/23 07:05:00;;;;;;;1.20;1.10;;;14.20;97.30;;;;;;5007296;28;20575;-87
2023/09/23 07:07:26;;;;;;;1.00;0.90;;;14.30;97.30;;;;;;5007074;28;20927;-90
2023/09/23 07:09:51;;;;;;;0.90;0.80;;;14.40;97.30;;;;;;5005292;28;20643;-89
2023/09/23 07:12:17;;;;;;;1.00;0.90;;;14.40;97.30;;;;;;5009738;28;20523;-88
2023/09/23 07:14:43;;;;;;;0.90;0.80;;;14.40;97.30;;;;;;5001504;28;20238;-88
2023/09/23 07:17:08;;;;;;;1.50;1.40;;;14.50;97.30;;;;;;5007792;28;20335;-87
2023/09/23 07:19:34;;;;;;;1.00;0.90;;;14.60;97.30;;;;;;5008302;28;20174;-88
2023/09/23 07:22:00;;;;;;;1.10;1.00;;;14.60;97.30;;;;;;5002958;28;20205;-87
2023/09/23 07:24:26;;;;;;;1.00;0.90;;;14.70;97.30;;;;;;5002826;28;20709;-85
2023/09/23 07:26:56;;;;;;;1.00;0.90;;;14.70;97.30;;;;;;5003593;28;20203;-85
2023/09/23 07:29:22;;;;;;;1.10;1.00;;;14.80;97.30;;;;;;5011139;28;20423;-88
2023/09/23 07:31:48;;;;;;;1.00;0.90;;;14.80;97.30;;;;;;5003408;28;20486;-86
2023/09/23 07:34:13;;;;;;;1.10;1.00;;;14.80;97.30;;;;;;5010437;28;20181;-86
2023/09/23 07:36:39;;;;;;;0.90;0.80;;;14.80;97.30;;;;;;5011102;28;20204;-87
2023/09/23 07:39:05;;;;;;;1.10;1.00;;;14.80;97.30;;;;;;5003972;28;20193;-86
2023/09/23 07:41:31;;;;;;;1.07;0.97;;;14.90;97.30;;;;;;5003463;28;20436;-87
2023/09/23 07:43:57;;;;;;;1.00;0.90;;;14.90;97.30;;;;;;5009937;28;20181;-87
2023/09/23 07:46:22;;;;;;;0.90;0.80;;;15.00;97.30;;;;;;5009019;28;20181;-88
2023/09/23 07:48:48;;;;;;;1.00;0.90;;;15.10;97.30;;;;;;5005639;28;20967;-89
2023/09/23 07:51:13;;;;;;;0.77;0.73;;;15.10;97.30;;;;;;5002292;28;20212;-88
2023/09/23 07:53:39;;;;;;;1.00;0.90;;;15.20;97.30;;;;;;4999387;28;20178;-86
2023/09/23 07:56:05;;;;;;;1.23;1.13;;;15.20;97.30;;;;;;5001382;28;20227;-88
2023/09/23 07:58:31;;;;;;;1.00;0.90;;;15.20;97.30;;;;;;5004525;28;20273;-85
2023/09/23 08:00:56;;;;;;;1.10;1.00;;;15.20;97.30;;;;;;5005835;28;20695;-86
2023/09/23 08:03:26;;;;;;;0.90;0.80;;;15.30;97.30;;;;;;5008024;28;20193;-86
2023/09/23 08:05:52;;;;;;;1.40;1.37;;;15.30;97.30;;;;;;5011230;28;20177;-86
2023/09/23 08:08:18;;;;;;;1.10;1.00;;;15.40;97.30;;;;;;5003096;28;20412;-88
2023/09/23 08:10:43;;;;;;;1.07;0.97;;;15.50;97.30;;;;;;5009408;28;20440;-86
2023/09/23 08:13:09;;;;;;;1.00;0.90;;;15.60;97.30;;;;;;5008758;28;20662;-88
2023/09/23 08:15:34;;;;;;;1.33;1.23;;;15.60;97.20;;;;;;5002159;28;20193;-87
2023/09/23 08:18:00;;;;;;;1.00;0.90;;;15.60;96.70;;;;;;4999746;28;20205;-86
2023/09/23 08:20:26;;;;;;;1.10;1.00;;;15.60;96.60;;;;;;4999304;28;20193;-88
2023/09/23 08:22:53;;;;;;;1.83;1.10;;;15.50;96.30;;;;;;5003401;28;20228;-88
2023/09/23 08:25:19;;;;;;;1.53;1.43;;;15.50;96.70;;;;;;5005097;28;20452;-86
2023/09/23 08:27:45;;;;;;;1.00;0.90;;;15.50;96.70;;;;;;5000649;28;20463;-89
2023/09/23 08:30:11;;;;;;;2.50;0.90;;;15.60;96.30;;;;;;4998964;28;20185;-87
2023/09/23 08:32:38;;;;;;;1.03;0.93;;;15.60;96.40;;;;;;5012933;28;20493;-86
2023/09/23 08:35:05;;;;;;;1.00;0.90;;;15.70;96.20;;;;;;5006403;28;20420;-87
2023/09/23 08:37:31;;;;;;;1.23;1.13;;;15.70;95.80;;;;;;5002894;28;20547;-86
2023/09/23 08:39:56;;;;;;;0.90;0.83;;;15.70;96.00;;;;;;4993902;28;20428;-86
2023/09/23 08:42:24;;;;;;;0.93;0.83;;;15.70;95.60;;;;;;5013460;28;20194;-87
2023/09/23 08:44:51;;;;;;;1.10;1.00;;;15.80;95.60;;;;;;5012869;28;20208;-86
2023/09/23 08:47:20;;;;;;;0.90;0.80;;;15.90;95.60;;;;;;5011424;28;20424;-86
2023/09/23 08:49:50;;;;;;;1.27;1.17;;;16.00;95.00;;;;;;5006890;28;20420;-87
2023/09/23 08:52:19;;;;;;;1.00;0.90;;;16.10;94.80;;;;;;5011247;28;20617;-86
2023/09/23 08:54:49;;;;;;;1.00;1.00;;;16.20;95.10;;;;;;5007946;28;20440;-87
2023/09/23 08:57:16;;;;;;;0.90;0.80;;;16.30;94.70;;;;;;5010158;28;20456;-88
2023/09/23 08:59:42;;;;;;;0.90;0.80;;;16.40;94.60;;;;;;5009520;28;20479;-87
2023/09/23 09:02:08;;;;;;;1.33;1.23;;;16.40;94.80;;;;;;5008693;28;20463;-89
2023/09/23 09:04:34;;;;;;;0.90;0.80;;;16.50;94.10;;;;;;5004782;28;20498;-88
2023/09/23 09:07:00;;;;;;;0.90;0.80;;;16.60;94.20;;;;;;4997790;28;20278;-87
2023/09/23 09:09:25;;;;;;;1.07;1.07;;;16.70;93.20;;;;;;5004228;28;20954;-85
2023/09/23 09:11:53;;;;;;;1.13;1.03;;;16.70;93.40;;;;;;5012271;28;20219;-86
2023/09/23 09:14:20;;;;;;;1.73;1.03;;;16.60;93.30;;;;;;5010629;28;20188;-86
2023/09/23 09:16:45;;;;;;;1.47;1.40;;;16.60;92.80;;;;;;4998601;28;20859;-87
2023/09/23 09:19:11;;;;;;;1.03;0.93;;;16.50;91.80;;;;;;5004596;28;20512;-89
2023/09/23 09:21:37;;;;;;;1.00;0.90;;;16.50;93.30;;;;;;5012297;28;20200;-87
2023/09/23 09:24:04;;;;;;;1.00;0.90;;;16.60;93.60;;;;;;5013617;28;20181;-86
2023/09/23 09:26:30;;;;;;;1.20;0.80;;;16.60;92.60;;;;;;5011769;28;20189;-86
2023/09/23 09:28:56;;;;;;;1.00;0.90;;;16.60;92.80;;;;;;5013761;28;20769;-84
2023/09/23 09:31:23;;;;;;;3.83;0.97;;;16.50;92.30;;;;;;5004494;28;20448;-86
2023/09/23 09:33:52;;;;;;;1.30;1.20;;;16.40;92.60;;;;;;5009153;28;20192;-85
2023/09/23 09:36:20;;;;;;;0.90;0.80;;;16.40;93.10;;;;;;5004280;28;20459;-87
2023/09/23 09:38:53;;;;;;;1.00;0.90;;;16.50;93.70;;;;;;5010995;28;20517;-86
2023/09/23 09:41:29;;;;;;;1.00;0.90;;;16.60;93.50;;;;;;5007827;28;20443;-86
2023/09/23 09:44:00;;;;;;;1.00;0.90;;;16.60;93.30;;;;;;5007595;28;20513;-85
2023/09/23 09:46:29;;;;;;;1.53;1.43;;;16.70;93.40;;;;;;5010677;28;20555;-86
2023/09/23 09:48:57;;;;;;;0.90;0.80;;;16.80;93.40;;;;;;5010751;28;20428;-85
2023/09/23 09:51:23;;;;;;;2.43;1.57;;;16.80;93.60;;;;;;5008084;28;20521;-87
2023/09/23 09:53:50;;;;;;;1.00;0.90;;;16.80;93.10;;;;;;5009210;28;21047;-85
2023/09/23 09:56:17;;;;;;;0.90;0.80;;;16.80;93.10;;;;;;5004405;28;20544;-87
2023/09/23 09:58:42;;;;;;;6.30;2.10;;;16.80;93.40;;;;;;5010145;28;20858;-83
2023/09/23 10:01:12;;;;;;;1.10;1.00;;;16.80;93.20;;;;;;5012516;28;20528;-84
2023/09/23 10:03:42;;;;;;;1.00;0.90;;;16.80;93.60;;;;;;5012247;28;20177;-80
2023/09/23 10:06:08;;;;;;;1.00;0.90;;;16.90;94.10;;;;;;5013296;28;20420;-84
2023/09/23 10:08:38;;;;;;;1.53;1.40;;;17.00;93.90;;;;;;5012056;28;20511;-83
2023/09/23 10:11:08;;;;;;;0.90;0.80;;;17.20;93.40;;;;;;5006573;28;20223;-85
2023/09/23 10:13:34;;;;;;;1.30;1.00;;;17.30;92.00;;;;;;5007600;28;20427;-84
2023/09/23 10:16:18;;;;;;;1.10;1.00;;;17.30;91.70;;;;;;5000633;28;20424;-84
2023/09/23 10:18:53;;;;;;;3.33;1.17;;;17.30;92.20;;;;;;5005321;28;20450;-84
2023/09/23 10:21:24;;;;;;;0.90;0.90;;;17.30;92.50;;;;;;5009762;28;20440;-83
2023/09/23 10:23:55;;;;;;;5.23;1.67;;;17.50;92.50;;;;;;5000250;28;20421;-84
2023/09/23 10:26:23;;;;;;;0.97;0.80;;;17.60;92.00;;;;;;5013282;28;20424;-84
2023/09/23 10:29:15;;;;;;;1.40;1.30;;;17.60;91.00;;;;;;5004495;28;20416;-85
2023/09/23 10:31:40;;;;;;;1.00;0.90;;;17.70;91.30;;;;;;5004450;28;20461;-84
2023/09/23 10:34:08;;;;;;;0.97;0.87;;;17.60;90.30;;;;;;5001205;28;20459;-85
2023/09/23 10:36:36;;;;;;;1.00;0.90;;;17.60;90.70;;;;;;4995574;28;20200;-87
2023/09/23 10:39:03;;;;;;;1.13;1.03;;;17.60;89.80;;;;;;5024009;23;20472;-66
2023/09/23 10:41:36;;;;;;;1.10;0.90;;;17.50;89.60;;;;;;4968679;28;20467;-69
2023/09/23 10:44:02;;;;;;;1.10;1.00;;;17.50;90.70;;;;;;4963952;28;20697;-66
2023/09/23 10:46:32;;;;;;;0.90;0.80;;;17.50;91.30;;;;;;4961319;28;20414;-68
2023/09/23 10:48:58;;;;;;;1.10;1.00;;;17.60;91.40;;;;;;4970646;28;20433;-67
2023/09/23 10:51:24;;;;;;;1.00;0.90;;;17.80;91.30;;;;;;4965567;28;20470;-67
2023/09/23 10:53:52;;;;;;;1.50;1.30;;;18.00;91.80;;;;;;4949613;28;20446;-66
2023/09/23 10:56:22;;;;;;;1.10;1.00;;;18.10;90.60;;;;;;4965014;28;20218;-67
2023/09/23 10:58:51;;;;;;;1.10;1.00;;;18.20;90.90;;;;;;4964385;28;20466;-70
2023/09/23 11:01:18;;;;;;;1.20;1.10;;;18.30;90.20;;;;;;4956016;28;20493;-68
2023/09/23 11:03:45;;;;;;;1.20;1.10;;;18.40;89.50;;;;;;4946593;28;20541;-74
2023/09/23 11:06:10;;;;;;;0.97;0.87;;;18.60;89.50;;;;;;4952518;28;20513;-67
2023/09/23 11:08:37;;;;;;;1.10;1.00;;;18.70;89.40;;;;;;4964813;28;20497;-68
2023/09/23 11:11:02;;;;;;;0.90;0.80;;;18.70;89.30;;;;;;4961887;28;20657;-66
2023/09/23 11:13:31;;;;;;;2.00;1.23;;;18.70;88.50;;;;;;4958429;28;20430;-68
2023/09/23 11:15:56;;;;;;;1.17;1.07;;;18.80;88.80;;;;;;4962325;28;20222;-66
2023/09/23 11:18:22;;;;;;;0.90;0.80;;;18.80;88.30;;;;;;4965600;28;20448;-67
2023/09/23 11:20:48;;;;;;;1.10;1.00;;;18.90;88.40;;;;;;4961629;28;20644;-80
2023/09/23 11:23:14;;;;;;;0.70;0.70;;;18.90;87.90;;;;;;4968545;28;20179;-68
2023/09/23 11:25:44;;;;;;;1.47;1.40;;;18.90;88.60;;;;;;4958894;28;20290;-67
2023/09/23 11:28:21;;;;;;;0.70;0.70;;;19.00;88.60;;;;;;4964781;28;20433;-67
2023/09/23 11:30:48;;;;;;;1.10;1.00;;;19.00;87.70;;;;;;4963577;28;20464;-67
2023/09/23 11:33:13;;;;;;;1.00;0.90;;;19.10;86.40;;;;;;4967866;28;20529;-71
2023/09/23 11:35:40;;;;;;;1.30;1.07;;;19.20;87.60;;;;;;4969518;28;20524;-68
2023/09/23 11:38:06;;;;;;;2.10;1.33;;;19.30;87.40;;;;;;4964064;28;20206;-67
2023/09/23 11:40:32;;;;;;;1.00;0.90;;;19.40;87.60;;;;;;4968267;28;20524;-67
2023/09/23 11:42:59;;;;;;;1.00;0.90;;;19.40;86.50;;;;;;4964731;28;20477;-69
2023/09/23 11:45:24;;;;;;;0.90;0.80;;;19.30;85.60;;;;;;4968223;28;20174;-69
2023/09/23 11:47:51;;;;;;;1.37;1.10;;;19.10;86.90;;;;;;4966500;28;20421;-68
2023/09/23 11:50:17;;;;;;;1.30;1.20;;;19.10;87.70;;;;;;4963046;28;20178;-68
2023/09/23 11:52:42;;;;;;;0.90;0.80;;;19.20;88.70;;;;;;4966932;28;20557;-73
2023/09/23 11:55:10;;;;;;;0.73;0.70;;;19.50;88.10;;;;;;4970699;28;20261;-67
2023/09/23 11:57:36;;;;;;;1.33;1.30;;;19.70;85.60;;;;;;4961506;28;20220;-68
2023/09/23 12:00:04;;;;;;;1.20;1.10;;;19.90;85.50;;;;;;4967196;28;20417;-67
2023/09/23 12:02:30;;;;;;;1.03;0.93;;;20.00;84.70;;;;;;4969936;28;20198;-72
2023/09/23 12:04:56;;;;;;;1.10;1.00;;;20.10;83.80;;;;;;4964752;28;20474;-69
2023/09/23 12:07:23;;;;;;;0.90;0.80;;;20.20;83.70;;;;;;4969623;28;20985;-68
2023/09/23 12:09:49;;;;;;;2.20;1.00;;;20.20;84.40;;;;;;4965011;28;20221;-67
2023/09/23 12:12:14;;;;;;;1.20;1.10;;;20.20;84.10;;;;;;4962151;28;20475;-69
2023/09/23 12:14:43;;;;;;;0.90;0.80;;;20.20;83.10;;;;;;4970724;28;20196;-70
2023/09/23 12:17:14;;;;;;;0.70;0.70;;;20.20;83.50;;;;;;4970762;28;20190;-71
2023/09/23 12:19:40;;;;;;;0.90;0.80;;;20.10;83.20;;;;;;4968622;28;20938;-78
2023/09/23 12:22:05;;;;;;;1.63;1.10;;;20.10;84.30;;;;;;4963712;28;20492;-69
2023/09/23 12:24:31;;;;;;;0.90;0.80;;;20.20;83.10;;;;;;4969438;28;20430;-70
2023/09/23 12:26:58;;;;;;;1.00;0.90;;;20.20;82.60;;;;;;4963856;28;20584;-72
2023/09/23 12:29:24;;;;;;;1.20;1.00;;;20.20;82.60;;;;;;4962371;28;20697;-70
2023/09/23 12:31:50;;;;;;;0.90;0.80;;;20.30;82.60;;;;;;4966237;28;20445;-69
2023/09/23 12:34:15;;;;;;;1.73;0.90;;;20.40;83.50;;;;;;4967965;28;20270;-67
2023/09/23 12:36:41;;;;;;;0.83;0.77;;;20.50;82.20;;;;;;4965425;28;20268;-68
2023/09/23 12:39:06;;;;;;;1.17;0.90;;;20.50;81.20;;;;;;4965113;28;20193;-70
2023/09/23 12:41:32;;;;;;;0.83;0.73;;;20.60;81.80;;;;;;4964679;28;20281;-70
2023/09/23 12:43:58;;;;;;;0.80;0.80;;;20.60;81.20;;;;;;4970503;28;20174;-70
2023/09/23 12:46:23;;;;;;;1.00;0.90;;;20.70;81.70;;;;;;4969403;28;20203;-70
2023/09/23 12:48:49;;;;;;;1.00;0.90;;;20.80;82.20;;;;;;4970169;28;20186;-68
2023/09/23 12:51:15;;;;;;;0.90;0.80;;;20.80;80.00;;;;;;4965231;28;20202;-68
2023/09/23 12:53:41;;;;;;;1.33;1.23;;;20.80;82.30;;;;;;4963120;28;20175;-71
2023/09/23 12:56:08;;;;;;;1.93;1.03;;;20.90;81.90;;;;;;4964891;28;20464;-71
2023/09/23 12:58:34;;;;;;;0.70;0.70;;;21.10;82.60;;;;;;4963625;28;20441;-69
2023/09/23 13:00:59;;;;;;;1.17;1.07;;;21.30;81.20;;;;;;4966872;28;20465;-70
2023/09/23 13:03:27;;;;;;;0.90;0.80;;;21.40;82.20;;;;;;4967576;28;20418;-69
2023/09/23 13:05:52;;;;;;;1.20;1.10;;;21.50;80.80;;;;;;4968821;28;20179;-74
2023/09/23 13:08:20;;;;;;;0.70;0.70;;;21.60;80.40;;;;;;4964397;28;20434;-70
2023/09/23 13:10:46;;;;;;;1.53;1.10;;;21.70;80.80;;;;;;4960815;28;20210;-69
2023/09/23 13:13:12;;;;;;;0.80;0.80;;;21.70;80.10;;;;;;4970173;28;20430;-70
2023/09/23 13:15:37;;;;;;;1.00;0.90;;;21.50;79.90;;;;;;4972167;28;20171;-71
2023/09/23 13:18:03;;;;;;;1.23;1.00;;;21.20;80.30;;;;;;4967182;28;20198;-68
2023/09/23 13:20:28;;;;;;;1.00;0.90;;;20.90;79.80;;;;;;4970843;28;20198;-67
2023/09/23 13:22:54;;;;;;;1.00;0.90;;;20.60;80.50;;;;;;4971354;28;20198;-71
2023/09/23 13:25:20;;;;;;;1.53;0.87;;;20.10;81.50;;;;;;4968193;28;20261;-67
2023/09/23 13:27:45;;;;;;;1.10;1.00;;;19.90;82.50;;;;;;4966962;28;20358;-69
2023/09/23 13:30:11;;;;;;;0.90;0.80;;;19.80;83.10;;;;;;4969527;28;20669;-70
2023/09/23 13:32:39;;;;;;;1.00;0.90;;;19.70;83.00;;;;;;4969570;28;20737;-70
2023/09/23 13:35:07;;;;;;;0.97;0.87;;;19.60;83.30;;;;;;4965516;28;20186;-70
2023/09/23 13:37:33;;;;;;;2.00;1.00;;;19.80;83.20;;;;;;4960300;28;20601;-69
2023/09/23 13:39:58;;;;;;;0.80;0.80;;;19.90;83.90;;;;;;4959034;28;20480;-73
2023/09/23 13:42:24;;;;;;;1.00;0.90;;;20.00;82.80;;;;;;4958610;28;20230;-70
2023/09/23 13:44:50;;;;;;;0.90;0.90;;;20.20;81.90;;;;;;4957257;28;20319;-69
2023/09/23 13:47:16;;;;;;;1.17;1.07;;;20.20;82.30;;;;;;4964159;28;20185;-69
2023/09/23 13:49:41;;;;;;;0.90;0.80;;;20.00;82.20;;;;;;4970313;28;20181;-70
2023/09/23 13:52:07;;;;;;;0.80;0.80;;;19.80;82.30;;;;;;4964700;28;20457;-69
2023/09/23 13:54:32;;;;;;;1.00;0.90;;;19.80;83.00;;;;;;4957129;28;20190;-71
2023/09/23 13:56:58;;;;;;;1.33;1.10;;;20.00;82.70;;;;;;4962215;28;20286;-69
2023/09/23 13:59:23;;;;;;;0.90;0.80;;;20.20;82.50;;;;;;4963674;28;20186;-71
2023/09/23 14:01:49;;;;;;;1.43;1.10;;;20.50;81.90;;;;;;4965622;28;20202;-70
2023/09/23 14:04:15;;;;;;;1.23;1.03;;;20.80;82.70;;;;;;4967857;28;20174;-66
2023/09/23 14:06:40;;;;;;;0.90;0.80;;;21.00;79.90;;;;;;4965590;28;20206;-69
2023/09/23 14:09:08;;;;;;;1.37;1.07;;;21.20;79.90;;;;;;4963362;28;20183;-71
2023/09/23 14:11:34;;;;;;;0.90;0.80;;;21.20;78.90;;;;;;4965955;28;20202;-71
2023/09/23 14:14:03;;;;;;;0.90;0.80;;;21.20;79.30;;;;;;4963572;28;20462;-69
2023/09/23 14:16:29;;;;;;;2.07;1.10;;;21.20;79.50;;;;;;4963880;28;20514;-68
2023/09/23 14:18:56;;;;;;;0.90;0.80;;;21.20;79.50;;;;;;4964002;28;20410;-69
2023/09/23 14:21:21;;;;;;;8.83;1.87;;;21.40;80.70;;;;;;4963176;28;20466;-67
2023/09/23 14:23:47;;;;;;;0.90;0.80;;;21.60;80.30;;;;;;4964109;28;20454;-68
2023/09/23 14:26:13;;;;;;;0.80;0.70;;;21.50;78.30;;;;;;4967564;28;20682;-68
2023/09/23 14:28:41;;;;;;;0.93;0.83;;;21.20;78.90;;;;;;4968519;28;20187;-68
2023/09/23 14:31:08;;;;;;;1.23;1.13;;;21.10;80.60;;;;;;4965423;28;20218;-67
2023/09/23 14:33:34;;;;;;;0.90;0.80;;;21.20;79.60;;;;;;4965382;28;20421;-68
2023/09/23 14:36:00;;;;;;;1.00;1.00;;;21.30;79.80;;;;;;4966709;28;20818;-70
2023/09/23 14:38:26;;;;;;;0.90;0.80;;;21.30;79.20;;;;;;4965237;28;20269;-69
2023/09/23 14:40:52;;;;;;;0.70;0.70;;;21.40;79.60;;;;;;4964548;28;20468;-69
2023/09/23 14:43:17;;;;;;;0.97;0.90;;;21.50;79.40;;;;;;4969715;28;20430;-69
2023/09/23 14:45:43;;;;;;;1.03;1.03;;;21.40;78.50;;;;;;4961573;28;20186;-68
2023/09/23 14:48:09;;;;;;;0.90;0.80;;;21.30;80.00;;;;;;4964055;28;20193;-68
2023/09/23 14:50:36;;;;;;;1.00;0.90;;;21.20;80.20;;;;;;4966643;28;20982;-70
2023/09/23 14:53:02;;;;;;;1.00;0.90;;;21.20;81.00;;;;;;4961071;28;20210;-70
2023/09/23 14:55:28;;;;;;;0.90;0.80;;;21.30;80.50;;;;;;4958939;28;20454;-68
2023/09/23 14:57:54;;;;;;;1.07;1.00;;;21.30;79.90;;;;;;4966502;28;20260;-68
2023/09/23 15:00:23;;;;;;;0.70;0.70;;;21.10;80.30;;;;;;4962042;28;20171;-68
2023/09/23 15:02:49;;;;;;;1.93;1.50;;;20.90;80.70;;;;;;4961499;28;20477;-68
2023/09/23 15:05:15;;;;;;;1.17;1.03;;;20.90;81.50;;;;;;4967792;28;20406;-68
2023/09/23 15:07:40;;;;;;;0.90;0.80;;;20.80;81.20;;;;;;4970408;28;20764;-69
2023/09/23 15:10:07;;;;;;;0.90;0.80;;;20.70;81.40;;;;;;4965873;28;20666;-67
2023/09/23 15:12:33;;;;;;;1.10;1.00;;;20.70;81.30;;;;;;4970382;28;20190;-67
2023/09/23 15:14:59;;;;;;;0.70;0.70;;;20.80;80.20;;;;;;4965804;28;20410;-68
2023/09/23 15:17:25;;;;;;;0.80;0.70;;;20.80;80.80;;;;;;4965344;28;20206;-68
2023/09/23 15:19:50;;;;;;;0.70;0.70;;;20.70;80.80;;;;;;4969773;28;21008;-68
2023/09/23 15:22:16;;;;;;;0.73;0.70;;;20.70;81.10;;;;;;4965839;28;20449;-67
2023/09/23 15:24:43;;;;;;;1.00;0.90;;;20.60;81.40;;;;;;4966294;28;20193;-68
2023/09/23 15:27:11;;;;;;;0.77;0.73;;;20.70;80.60;;;;;;4968917;28;20241;-67
2023/09/23 15:29:37;;;;;;;0.70;0.70;;;20.90;81.00;;;;;;4970992;28;20480;-68
2023/09/23 15:32:03;;;;;;;1.10;1.00;;;21.00;81.20;;;;;;4966778;28;20839;-67
2023/09/23 15:34:29;;;;;;;1.13;1.07;;;21.10;79.70;;;;;;4968737;28;20414;-68
2023/09/23 15:36:54;;;;;;;0.83;0.77;;;21.20;79.40;;;;;;4963288;28;20632;-68
2023/09/23 15:39:20;;;;;;;1.00;0.90;;;21.20;79.20;;;;;;4965541;28;20466;-67
2023/09/23 15:41:46;;;;;;;1.70;0.97;;;21.10;79.40;;;;;;4966869;28;20261;-67
2023/09/23 15:44:12;;;;;;;0.90;0.80;;;20.90;79.80;;;;;;4965421;28;20447;-67
2023/09/23 15:46:37;;;;;;;4.43;1.30;;;20.70;80.70;;;;;;4964243;28;20183;-67
2023/09/23 15:49:03;;;;;;;1.00;0.90;;;20.50;80.80;;;;;;4967656;28;20190;-67
2023/09/23 15:51:30;;;;;;;1.33;1.23;;;20.10;81.20;;;;;;4961842;28;20746;-68
2023/09/23 15:53:58;;;;;;;0.97;0.87;;;19.80;81.00;;;;;;4970908;28;20638;-67
2023/09/23 15:56:24;;;;;;;0.77;0.73;;;19.60;81.80;;;;;;4965838;28;20463;-67
2023/09/23 15:58:52;;;;;;;2.17;1.67;;;19.50;83.00;;;;;;4966002;28;20426;-68
2023/09/23 16:01:18;;;;;;;1.00;0.90;;;19.50;83.00;;;;;;4967170;28;20435;-67
2023/09/23 16:03:44;;;;;;;1.83;0.90;;;19.40;83.30;;;;;;4966880;28;20417;-67
2023/09/23 16:06:10;;;;;;;0.80;0.77;;;19.40;83.10;;;;;;4963032;28;20651;-68
2023/09/23 16:08:35;;;;;;;1.27;1.00;;;19.20;82.90;;;;;;4963338;28;20269;-69
2023/09/23 16:11:01;;;;;;;0.70;0.70;;;19.10;83.30;;;;;;4960022;28;20213;-67
2023/09/23 16:13:27;;;;;;;0.90;0.80;;;19.00;83.40;;;;;;4958616;28;20390;-67
2023/09/23 16:15:53;;;;;;;1.47;1.37;;;18.90;83.40;;;;;;4964407;28;20942;-67
2023/09/23 16:18:18;;;;;;;3.37;1.03;;;18.80;83.40;;;;;;4964732;28;20207;-67
2023/09/23 16:20:44;;;;;;;1.00;0.90;;;18.70;83.90;;;;;;4964578;28;20625;-67
2023/09/23 16:23:10;;;;;;;1.00;1.00;;;18.70;84.00;;;;;;4963807;28;20183;-67
2023/09/23 16:25:35;;;;;;;0.90;0.80;;;18.60;84.40;;;;;;4967156;28;20663;-67
2023/09/23 16:28:01;;;;;;;0.90;0.80;;;18.60;84.00;;;;;;4964944;28;20198;-67
2023/09/23 16:30:26;;;;;;;1.57;1.30;;;18.40;84.30;;;;;;4967024;28;20302;-75
2023/09/23 16:33:02;;;;;;;0.97;0.87;;;18.40;84.70;;;;;;4961153;28;20213;-67
2023/09/23 16:35:28;;;;;;;1.00;0.90;;;18.30;84.80;;;;;;4963175;28;20174;-67
2023/09/23 16:37:54;;;;;;;1.30;1.23;;;18.30;85.20;;;;;;4964644;28;20470;-68
2023/09/23 16:40:19;;;;;;;0.97;0.87;;;18.20;85.30;;;;;;4962678;28;20769;-67
2023/09/23 16:42:46;;;;;;;0.90;0.80;;;18.20;85.60;;;;;;4963158;28;20599;-67
2023/09/23 16:45:12;;;;;;;1.20;1.10;;;18.10;85.80;;;;;;4964489;28;20602;-67